Time;durP1;ratioP1;P1;durP2;ratioP2;P2;SDS_P1;SDS_P2;PMS_P1;PMS_P2;Temp;Humidity;BMP_temperature;BMP_pressure;BME280_temperature;BME280_humidity;BME280_pressure;Samples;Min_cycle;Max_cycle;Signal;HPM_P1;HPM_P2
2023/05/22 00:01:55;;;;;;;3.87;3.67;;;17.30;99.90;;;;;;5041858;28;20461;-67
2023/05/22 00:04:28;;;;;;;2.80;2.70;;;17.30;99.90;;;;;;5037842;28;20472;-67
2023/05/22 00:06:57;;;;;;;2.90;2.80;;;17.30;99.90;;;;;;5042062;28;20500;-68
2023/05/22 00:09:25;;;;;;;4.13;3.90;;;17.20;99.90;;;;;;5041370;28;20526;-67
2023/05/22 00:11:53;;;;;;;3.43;3.33;;;17.10;99.90;;;;;;5033626;28;20468;-68
2023/05/22 00:14:20;;;;;;;2.73;2.63;;;17.10;99.90;;;;;;5035312;28;20456;-67
2023/05/22 00:16:47;;;;;;;3.43;3.33;;;17.00;99.90;;;;;;5040559;28;20465;-67
2023/05/22 00:19:15;;;;;;;4.27;3.23;;;16.90;99.90;;;;;;5040117;28;20488;-68
2023/05/22 00:21:42;;;;;;;3.77;3.57;;;16.90;99.90;;;;;;5031694;28;20886;-67
2023/05/22 00:24:11;;;;;;;2.80;2.70;;;16.90;99.90;;;;;;5031214;28;20495;-67
2023/05/22 00:26:38;;;;;;;2.90;2.80;;;17.00;99.90;;;;;;5046266;28;20613;-67
2023/05/22 00:29:05;;;;;;;2.43;2.33;;;16.90;99.90;;;;;;5033634;28;20494;-68
2023/05/22 00:31:32;;;;;;;2.40;2.30;;;16.90;99.90;;;;;;5041462;28;20456;-67
2023/05/22 00:34:13;;;;;;;2.40;2.30;;;16.90;99.90;;;;;;5044037;28;20517;-67
2023/05/22 00:36:40;;;;;;;3.37;3.27;;;16.90;99.90;;;;;;5033991;28;20478;-67
2023/05/22 00:39:09;;;;;;;2.83;2.73;;;16.90;99.90;;;;;;5037514;28;20468;-67
2023/05/22 00:41:37;;;;;;;2.40;2.30;;;16.80;99.90;;;;;;5042553;28;20551;-67
2023/05/22 00:44:05;;;;;;;3.33;3.23;;;16.80;99.90;;;;;;5032366;28;20456;-67
2023/05/22 00:46:35;;;;;;;2.60;2.50;;;16.90;99.90;;;;;;5041458;28;20461;-67
2023/05/22 00:49:03;;;;;;;4.27;3.97;;;16.80;99.90;;;;;;5046972;28;21025;-67
2023/05/22 00:51:30;;;;;;;2.43;2.33;;;16.80;99.90;;;;;;5049350;28;20463;-68
2023/05/22 00:53:57;;;;;;;2.40;2.30;;;16.90;99.90;;;;;;5044932;28;20459;-67
2023/05/22 00:56:25;;;;;;;5.90;5.53;;;16.90;99.90;;;;;;5049038;28;20529;-68
2023/05/22 00:58:54;;;;;;;2.70;2.60;;;16.90;99.90;;;;;;5047365;28;20555;-67
2023/05/22 01:01:25;;;;;;;2.77;2.67;;;16.90;99.90;;;;;;5049831;28;20455;-67
2023/05/22 01:03:54;;;;;;;2.60;2.50;;;16.90;99.90;;;;;;5043705;28;20475;-67
2023/05/22 01:06:22;;;;;;;3.00;2.90;;;16.90;99.90;;;;;;5039956;28;20479;-67
2023/05/22 01:08:49;;;;;;;2.97;2.87;;;16.90;99.90;;;;;;5041548;28;20866;-67
2023/05/22 01:11:25;;;;;;;3.07;2.97;;;16.90;99.90;;;;;;5040774;28;20517;-67
2023/05/22 01:14:00;;;;;;;2.87;2.77;;;16.90;99.90;;;;;;5046710;28;20909;-68
2023/05/22 01:16:32;;;;;;;2.80;2.70;;;16.90;99.90;;;;;;5042997;28;20516;-67
2023/05/22 01:19:05;;;;;;;2.63;2.53;;;16.90;99.90;;;;;;5044134;28;20487;-68
2023/05/22 01:21:45;;;;;;;2.80;2.70;;;16.90;99.90;;;;;;5040044;28;20579;-67
2023/05/22 01:24:53;;;;;;;2.90;2.80;;;16.90;99.90;;;;;;5041653;28;20491;-67
2023/05/22 01:27:41;;;;;;;2.80;2.70;;;16.90;99.90;;;;;;5042429;28;20453;-68
2023/05/22 01:30:39;;;;;;;4.00;3.70;;;16.80;99.90;;;;;;5042875;28;20758;-68
2023/05/22 01:33:07;;;;;;;3.80;3.67;;;16.80;99.90;;;;;;5010500;28;20460;-66
2023/05/22 01:35:37;;;;;;;2.90;2.80;;;16.80;99.90;;;;;;5047016;28;20468;-67
2023/05/22 01:38:04;;;;;;;3.20;3.10;;;16.80;99.90;;;;;;5040665;28;20535;-67
2023/05/22 01:40:32;;;;;;;2.90;2.80;;;16.80;99.90;;;;;;5042372;28;20825;-68
2023/05/22 01:43:00;;;;;;;3.50;3.37;;;16.80;99.90;;;;;;5044497;28;20488;-67
2023/05/22 01:45:27;;;;;;;2.83;2.73;;;16.70;99.90;;;;;;5043546;28;20464;-67
2023/05/22 01:47:56;;;;;;;3.03;2.93;;;16.70;99.90;;;;;;5041684;28;20461;-67
2023/05/22 01:50:23;;;;;;;3.10;3.00;;;16.60;99.90;;;;;;5045830;28;20483;-68
2023/05/22 01:52:58;;;;;;;3.20;3.10;;;16.60;99.90;;;;;;5037895;28;20488;-68
2023/05/22 01:55:28;;;;;;;3.00;2.90;;;16.60;99.90;;;;;;5046539;28;20458;-67
2023/05/22 01:57:59;;;;;;;3.13;3.03;;;16.50;99.90;;;;;;5044557;28;20461;-67
2023/05/22 02:00:27;;;;;;;3.20;3.10;;;16.40;99.90;;;;;;5042328;28;20534;-67
2023/05/22 02:03:00;;;;;;;3.77;3.67;;;16.30;99.90;;;;;;5037836;28;20486;-67
2023/05/22 02:05:29;;;;;;;3.70;3.60;;;16.30;99.90;;;;;;5045995;28;20476;-68
2023/05/22 02:07:58;;;;;;;4.17;3.97;;;16.30;99.90;;;;;;5046074;28;20464;-67
2023/05/22 02:10:27;;;;;;;3.53;3.43;;;16.30;99.90;;;;;;5043827;28;20488;-68
2023/05/22 02:12:55;;;;;;;3.93;3.83;;;16.20;99.90;;;;;;5041265;28;20463;-68
2023/05/22 02:15:22;;;;;;;3.40;3.30;;;16.10;99.90;;;;;;5036546;28;20913;-67
2023/05/22 02:17:51;;;;;;;3.33;3.23;;;16.10;99.90;;;;;;5038324;28;20448;-67
2023/05/22 02:20:20;;;;;;;3.83;3.73;;;16.00;99.90;;;;;;5034056;28;20566;-68
2023/05/22 02:22:48;;;;;;;3.70;3.60;;;15.90;99.90;;;;;;5043379;28;20814;-67
2023/05/22 02:25:16;;;;;;;3.33;3.23;;;15.80;99.90;;;;;;5036854;28;21091;-68
2023/05/22 02:27:43;;;;;;;3.20;3.10;;;15.70;99.90;;;;;;5038260;28;20460;-67
2023/05/22 02:30:11;;;;;;;3.40;3.30;;;15.70;99.90;;;;;;5042796;28;20487;-66
2023/05/22 02:32:38;;;;;;;3.40;3.27;;;15.70;99.90;;;;;;5038923;28;20456;-67
2023/05/22 02:35:06;;;;;;;3.10;3.00;;;15.70;99.90;;;;;;5039095;28;20465;-68
2023/05/22 02:37:35;;;;;;;3.10;3.00;;;15.70;99.90;;;;;;5044681;28;20948;-67
2023/05/22 02:40:03;;;;;;;3.13;3.03;;;15.50;99.90;;;;;;5039737;28;20507;-67
2023/05/22 02:42:30;;;;;;;3.43;3.33;;;15.50;99.90;;;;;;5045993;28;20464;-68
2023/05/22 02:44:57;;;;;;;3.23;3.13;;;15.50;99.90;;;;;;5043404;28;20468;-67
2023/05/22 02:47:24;;;;;;;3.10;3.00;;;15.40;99.90;;;;;;5032096;28;20472;-67
2023/05/22 02:49:51;;;;;;;4.30;4.10;;;15.40;99.90;;;;;;5042555;28;20586;-66
2023/05/22 02:52:18;;;;;;;3.43;3.33;;;15.30;99.90;;;;;;5033076;28;20521;-67
2023/05/22 02:54:46;;;;;;;3.47;3.37;;;15.20;99.90;;;;;;5030070;28;20465;-67
2023/05/22 02:57:13;;;;;;;3.60;3.50;;;15.10;99.90;;;;;;5040081;28;20457;-66
2023/05/22 02:59:41;;;;;;;3.97;3.87;;;15.10;99.90;;;;;;5044711;28;20464;-67
2023/05/22 03:02:08;;;;;;;3.50;3.40;;;15.10;99.90;;;;;;5029086;28;20463;-67
2023/05/22 03:04:37;;;;;;;4.13;3.97;;;15.00;99.90;;;;;;5042500;28;20459;-67
2023/05/22 03:07:04;;;;;;;5.83;5.50;;;15.10;99.90;;;;;;5043096;28;20543;-67
2023/05/22 03:09:31;;;;;;;4.10;3.90;;;15.10;99.90;;;;;;5039019;28;20837;-66
2023/05/22 03:12:01;;;;;;;3.00;2.90;;;15.10;99.90;;;;;;5043279;28;20460;-68
2023/05/22 03:14:28;;;;;;;3.90;3.70;;;15.10;99.90;;;;;;5042848;28;20469;-67
2023/05/22 03:16:55;;;;;;;3.10;3.00;;;15.00;99.90;;;;;;5039350;28;20476;-67
2023/05/22 03:19:23;;;;;;;3.60;3.50;;;14.90;99.90;;;;;;5038755;28;20515;-67
2023/05/22 03:21:49;;;;;;;2.93;2.83;;;14.90;99.90;;;;;;5033872;28;20462;-67
2023/05/22 03:24:16;;;;;;;3.00;2.90;;;14.90;99.90;;;;;;5042673;28;20498;-67
2023/05/22 03:26:43;;;;;;;3.93;3.73;;;14.80;99.90;;;;;;5037985;28;20456;-67
2023/05/22 03:29:11;;;;;;;4.83;4.47;;;14.70;99.90;;;;;;5040068;28;20550;-67
2023/05/22 03:31:39;;;;;;;3.43;3.33;;;14.70;99.90;;;;;;5041392;28;20463;-68
2023/05/22 03:34:06;;;;;;;3.43;3.33;;;14.60;99.90;;;;;;5045783;28;20475;-67
2023/05/22 03:36:33;;;;;;;4.37;4.17;;;14.60;99.90;;;;;;5037020;28;20577;-66
2023/05/22 03:39:00;;;;;;;5.00;4.70;;;14.60;99.90;;;;;;5039473;28;20967;-67
2023/05/22 03:41:27;;;;;;;4.00;3.90;;;14.60;99.90;;;;;;5037531;28;20460;-66
2023/05/22 03:43:54;;;;;;;4.37;4.23;;;14.60;99.90;;;;;;5031727;28;20538;-67
2023/05/22 03:46:22;;;;;;;3.70;3.60;;;14.60;99.90;;;;;;5044348;28;20468;-66
2023/05/22 03:48:49;;;;;;;4.97;4.77;;;14.60;99.90;;;;;;5038726;28;20460;-68
2023/05/22 03:51:16;;;;;;;3.67;3.57;;;14.60;99.90;;;;;;5043392;28;20491;-66
2023/05/22 03:53:43;;;;;;;5.23;5.03;;;14.50;99.90;;;;;;5039183;28;20512;-67
2023/05/22 03:56:10;;;;;;;4.13;4.00;;;14.50;99.90;;;;;;5042895;28;20471;-67
2023/05/22 03:58:37;;;;;;;3.50;3.40;;;14.60;99.90;;;;;;5040729;28;20885;-68
2023/05/22 04:01:05;;;;;;;4.73;4.50;;;14.60;99.90;;;;;;5036111;28;20487;-67
2023/05/22 04:03:34;;;;;;;4.20;4.00;;;14.70;99.90;;;;;;5045177;28;20874;-67
2023/05/22 04:06:02;;;;;;;5.47;5.20;;;14.70;99.90;;;;;;5042018;28;20469;-67
2023/05/22 04:08:30;;;;;;;4.70;4.40;;;14.70;99.90;;;;;;5035211;28;20472;-66
2023/05/22 04:10:57;;;;;;;3.43;3.33;;;14.80;99.90;;;;;;5031457;28;20523;-68
2023/05/22 04:13:24;;;;;;;4.23;3.97;;;14.80;99.90;;;;;;5040286;28;20463;-68
2023/05/22 04:15:52;;;;;;;4.03;3.80;;;14.90;99.90;;;;;;5041942;28;20836;-67
2023/05/22 04:18:19;;;;;;;3.87;3.70;;;14.90;99.90;;;;;;5039060;28;20457;-66
2023/05/22 04:20:50;;;;;;;3.20;3.10;;;14.90;99.90;;;;;;5040092;28;20548;-67
2023/05/22 04:23:17;;;;;;;3.67;3.57;;;15.00;99.90;;;;;;5033687;28;20463;-67
2023/05/22 04:25:46;;;;;;;3.77;3.60;;;15.10;99.90;;;;;;5039072;28;20456;-67
2023/05/22 04:28:16;;;;;;;5.23;4.83;;;15.20;99.90;;;;;;5042326;28;20469;-67
2023/05/22 04:30:43;;;;;;;4.30;4.00;;;15.20;99.90;;;;;;5042622;28;20594;-67
2023/05/22 04:33:11;;;;;;;3.37;3.27;;;15.20;99.90;;;;;;5044255;28;20476;-67
2023/05/22 04:35:41;;;;;;;2.53;2.43;;;15.30;99.90;;;;;;5040054;28;20856;-67
2023/05/22 04:38:09;;;;;;;3.97;3.77;;;15.30;99.90;;;;;;5042361;28;20491;-67
2023/05/22 04:40:36;;;;;;;3.47;3.27;;;15.40;99.90;;;;;;5034530;28;20460;-66
2023/05/22 04:43:03;;;;;;;3.07;2.97;;;15.40;99.90;;;;;;5043138;28;20571;-66
2023/05/22 04:45:31;;;;;;;6.50;6.07;;;15.50;99.90;;;;;;5040130;28;20577;-67
2023/05/22 04:48:01;;;;;;;4.20;3.93;;;15.60;99.90;;;;;;5039028;28;20479;-67
2023/05/22 04:50:31;;;;;;;8.37;5.67;;;15.60;99.90;;;;;;5034998;28;20570;-65
2023/05/22 04:52:58;;;;;;;5.50;5.10;;;15.60;99.90;;;;;;5042461;28;20543;-66
2023/05/22 04:55:26;;;;;;;4.00;3.77;;;15.60;99.90;;;;;;5041209;28;20468;-67
2023/05/22 04:57:55;;;;;;;11.93;4.97;;;15.60;99.90;;;;;;5034506;28;20468;-67
2023/05/22 05:00:25;;;;;;;12.50;7.00;;;15.60;99.90;;;;;;5030465;28;21042;-66
2023/05/22 05:02:52;;;;;;;3.63;2.97;;;15.60;99.90;;;;;;5029584;28;20455;-67
2023/05/22 05:05:18;;;;;;;7.57;5.63;;;15.70;99.90;;;;;;5035546;28;20460;-67
2023/05/22 05:07:48;;;;;;;3.30;3.00;;;15.80;99.90;;;;;;5033866;28;20458;-67
2023/05/22 05:10:16;;;;;;;4.00;3.70;;;15.70;99.90;;;;;;5037285;28;20537;-66
2023/05/22 05:12:44;;;;;;;14.47;8.50;;;15.80;99.90;;;;;;5035663;28;20482;-67
2023/05/22 05:15:11;;;;;;;10.20;5.63;;;15.80;99.90;;;;;;5036596;28;20461;-68
2023/05/22 05:17:38;;;;;;;6.57;6.00;;;15.70;99.90;;;;;;5042201;28;20467;-68
2023/05/22 05:20:09;;;;;;;3.17;2.97;;;15.80;99.90;;;;;;5037120;28;20638;-67
2023/05/22 05:22:36;;;;;;;5.63;5.07;;;15.90;99.90;;;;;;5039057;28;20953;-67
2023/05/22 05:25:04;;;;;;;2.13;1.93;;;15.80;99.90;;;;;;5041799;28;21032;-67
2023/05/22 05:27:31;;;;;;;2.33;2.20;;;15.80;99.90;;;;;;5037169;28;20465;-67
2023/05/22 05:30:01;;;;;;;6.97;5.13;;;15.80;99.90;;;;;;5033170;28;20804;-68
2023/05/22 05:32:28;;;;;;;2.73;2.63;;;15.90;99.90;;;;;;5036200;28;20470;-67
2023/05/22 05:34:56;;;;;;;5.93;4.00;;;15.90;99.90;;;;;;5032290;28;20466;-66
2023/05/22 05:37:23;;;;;;;2.00;1.87;;;15.90;99.90;;;;;;5040214;28;20525;-67
2023/05/22 05:39:51;;;;;;;4.07;3.77;;;15.90;99.90;;;;;;5041881;28;20468;-68
2023/05/22 05:42:18;;;;;;;9.03;5.53;;;15.90;99.90;;;;;;5043107;28;21006;-67
2023/05/22 05:44:45;;;;;;;3.33;3.07;;;15.90;99.90;;;;;;5040019;28;20521;-68
2023/05/22 05:47:13;;;;;;;8.97;4.97;;;15.90;99.90;;;;;;5042665;28;20550;-67
2023/05/22 05:49:41;;;;;;;3.13;2.80;;;15.90;99.90;;;;;;5046035;28;20463;-67
2023/05/22 05:52:08;;;;;;;5.50;4.77;;;15.80;99.90;;;;;;5041828;28;20491;-67
2023/05/22 05:54:36;;;;;;;5.90;4.37;;;15.90;99.90;;;;;;5043578;28;20468;-67
2023/05/22 05:57:03;;;;;;;17.70;9.57;;;16.00;99.90;;;;;;5039975;28;20501;-66
2023/05/22 05:59:31;;;;;;;16.43;8.07;;;16.10;99.90;;;;;;5044015;28;20513;-67
2023/05/22 06:01:58;;;;;;;9.50;5.53;;;16.10;99.90;;;;;;5047913;28;20907;-67
2023/05/22 06:04:26;;;;;;;7.33;5.13;;;16.20;99.90;;;;;;5037685;28;20939;-67
2023/05/22 06:06:55;;;;;;;6.37;5.73;;;16.20;99.90;;;;;;5041358;28;20460;-66
2023/05/22 06:09:22;;;;;;;17.10;10.23;;;16.20;99.90;;;;;;5047777;28;20958;-67
2023/05/22 06:11:50;;;;;;;3.27;3.07;;;16.30;99.90;;;;;;5041797;28;20553;-67
2023/05/22 06:14:17;;;;;;;4.83;4.37;;;16.40;99.90;;;;;;5036496;28;20544;-68
2023/05/22 06:16:45;;;;;;;15.40;8.07;;;16.40;99.90;;;;;;5032568;28;21360;-67
2023/05/22 06:19:12;;;;;;;10.43;5.23;;;16.40;99.90;;;;;;5039046;28;20530;-67
2023/05/22 06:21:42;;;;;;;14.03;3.80;;;16.50;99.90;;;;;;5033947;28;20456;-68
2023/05/22 06:24:09;;;;;;;7.90;6.73;;;16.30;99.90;;;;;;5038723;28;20498;-66
2023/05/22 06:26:37;;;;;;;19.10;11.10;;;16.30;99.90;;;;;;5036168;28;20472;-67
2023/05/22 06:29:04;;;;;;;10.20;8.03;;;16.00;99.90;;;;;;5038208;28;20472;-67
2023/05/22 06:31:34;;;;;;;5.77;5.27;;;16.10;99.90;;;;;;5042263;28;20483;-67
2023/05/22 06:34:00;;;;;;;5.03;4.63;;;16.30;99.90;;;;;;5037539;28;20547;-67
2023/05/22 06:36:27;;;;;;;5.30;4.80;;;16.50;99.90;;;;;;5039475;28;20897;-67
2023/05/22 06:38:56;;;;;;;8.93;6.57;;;16.50;99.90;;;;;;5043190;28;20488;-68
2023/05/22 06:41:23;;;;;;;6.27;5.87;;;16.50;99.90;;;;;;5028851;28;20471;-67
2023/05/22 06:43:50;;;;;;;10.80;7.87;;;16.60;99.90;;;;;;5037893;28;20467;-68
2023/05/22 06:46:17;;;;;;;6.57;5.97;;;16.70;99.90;;;;;;5036262;28;20464;-67
2023/05/22 06:48:44;;;;;;;10.50;8.37;;;16.60;99.90;;;;;;5039880;28;20468;-67
2023/05/22 06:51:13;;;;;;;11.97;9.00;;;16.60;99.90;;;;;;5044213;28;20523;-67
2023/05/22 06:53:41;;;;;;;15.90;11.27;;;16.80;99.90;;;;;;5043895;28;20472;-67
2023/05/22 06:56:10;;;;;;;6.13;5.67;;;16.90;99.90;;;;;;5035310;28;20533;-67
2023/05/22 06:58:38;;;;;;;7.10;6.47;;;17.00;99.90;;;;;;5040804;28;20471;-68
2023/05/22 07:01:06;;;;;;;14.20;10.00;;;17.00;99.90;;;;;;5035801;28;21038;-68
2023/05/22 07:03:33;;;;;;;3.73;3.57;;;17.00;99.90;;;;;;5036454;28;20856;-67
2023/05/22 07:06:01;;;;;;;5.30;5.00;;;17.00;99.90;;;;;;5040006;28;20883;-67
2023/05/22 07:08:28;;;;;;;5.20;4.80;;;17.20;99.90;;;;;;5036835;28;20543;-67
2023/05/22 07:10:55;;;;;;;29.33;10.43;;;17.20;99.90;;;;;;5036127;28;21019;-68
2023/05/22 07:13:25;;;;;;;18.00;8.37;;;17.10;99.90;;;;;;5035391;28;20460;-67
2023/05/22 07:15:51;;;;;;;4.50;4.30;;;17.30;99.90;;;;;;5036334;28;20468;-67
2023/05/22 07:18:18;;;;;;;11.63;10.30;;;17.30;99.90;;;;;;5036132;28;20946;-68
2023/05/22 07:20:45;;;;;;;9.33;7.93;;;17.20;99.90;;;;;;5037969;28;20491;-67
2023/05/22 07:23:13;;;;;;;9.50;7.80;;;17.30;99.90;;;;;;5035080;28;20600;-67
2023/05/22 07:25:40;;;;;;;10.23;9.00;;;17.40;99.90;;;;;;5042543;28;20486;-67
2023/05/22 07:28:09;;;;;;;27.30;11.77;;;17.50;99.90;;;;;;5038883;28;20911;-68
2023/05/22 07:30:38;;;;;;;10.67;8.63;;;17.40;99.90;;;;;;5035550;28;20462;-68
2023/05/22 07:33:06;;;;;;;18.93;9.93;;;17.50;99.90;;;;;;5037199;28;20460;-68
2023/05/22 07:35:33;;;;;;;5.47;5.17;;;17.60;99.90;;;;;;5040335;28;20538;-67
2023/05/22 07:38:01;;;;;;;7.23;6.53;;;17.50;99.90;;;;;;5036874;28;20463;-68
2023/05/22 07:40:27;;;;;;;6.33;5.93;;;17.60;99.90;;;;;;5037420;28;20460;-68
2023/05/22 07:42:54;;;;;;;7.33;6.80;;;17.70;99.90;;;;;;5039993;28;20962;-67
2023/05/22 07:45:21;;;;;;;14.00;7.63;;;17.80;99.90;;;;;;5033718;28;20463;-69
2023/05/22 07:47:50;;;;;;;10.73;9.73;;;17.80;99.90;;;;;;5037187;28;20464;-67
2023/05/22 07:50:17;;;;;;;23.67;16.10;;;17.60;99.90;;;;;;5044982;28;20456;-68
2023/05/22 07:52:44;;;;;;;10.90;9.90;;;17.20;99.90;;;;;;5038698;28;20493;-68
2023/05/22 07:55:11;;;;;;;14.33;9.90;;;17.40;99.90;;;;;;5037129;28;20452;-67
2023/05/22 07:57:39;;;;;;;15.27;12.13;;;17.40;99.90;;;;;;5032023;28;20488;-67
2023/05/22 08:00:12;;;;;;;12.87;8.40;;;17.40;99.90;;;;;;5039539;28;20587;-68
2023/05/22 08:02:39;;;;;;;11.50;9.40;;;17.50;99.90;;;;;;5040657;28;20496;-68
2023/05/22 08:05:09;;;;;;;26.27;16.60;;;17.50;99.90;;;;;;5033214;28;20551;-67
2023/05/22 08:07:36;;;;;;;35.37;20.30;;;17.70;99.90;;;;;;5031020;28;20535;-69
2023/05/22 08:10:06;;;;;;;19.63;12.33;;;17.70;99.90;;;;;;5028540;28;20468;-68
2023/05/22 08:12:33;;;;;;;11.97;10.60;;;17.60;99.90;;;;;;5025983;28;20502;-67
2023/05/22 08:15:00;;;;;;;16.07;13.57;;;17.20;99.90;;;;;;5030318;28;21023;-68
2023/05/22 08:17:26;;;;;;;9.10;8.47;;;17.20;99.90;;;;;;5040745;28;20460;-69
2023/05/22 08:19:53;;;;;;;8.40;7.67;;;17.20;99.90;;;;;;5033050;28;20727;-67
2023/05/22 08:22:21;;;;;;;12.40;11.17;;;17.40;99.90;;;;;;5032410;28;20457;-67
2023/05/22 08:24:48;;;;;;;10.83;9.63;;;17.40;99.90;;;;;;5034896;28;20856;-67
2023/05/22 08:27:15;;;;;;;8.70;7.97;;;17.60;99.90;;;;;;5038676;28;20533;-68
2023/05/22 08:29:43;;;;;;;16.27;14.60;;;17.60;99.90;;;;;;5034086;28;20460;-68
2023/05/22 08:32:10;;;;;;;17.60;12.80;;;17.60;99.90;;;;;;5042485;28;20964;-67
2023/05/22 08:34:36;;;;;;;20.77;14.17;;;17.60;99.90;;;;;;5033217;28;20460;-68
2023/05/22 08:37:04;;;;;;;17.30;11.77;;;17.50;99.90;;;;;;5043748;28;20476;-68
2023/05/22 08:39:34;;;;;;;7.83;7.13;;;17.30;99.90;;;;;;5037469;28;20879;-67
2023/05/22 08:42:02;;;;;;;22.97;8.87;;;17.10;99.90;;;;;;5036124;28;20470;-68
2023/05/22 08:44:29;;;;;;;13.30;11.97;;;17.30;99.90;;;;;;5044248;28;20471;-67
2023/05/22 08:46:58;;;;;;;11.63;10.47;;;17.20;99.90;;;;;;5033554;28;20640;-68
2023/05/22 08:49:26;;;;;;;20.93;17.20;;;17.10;99.90;;;;;;5033435;28;20802;-68
2023/05/22 08:51:56;;;;;;;23.90;14.03;;;17.00;99.90;;;;;;5042434;28;21098;-67
2023/05/22 08:54:26;;;;;;;17.87;12.87;;;16.80;99.90;;;;;;5042495;28;20460;-68
2023/05/22 08:56:55;;;;;;;25.47;12.37;;;16.80;99.90;;;;;;5046117;28;20841;-68
2023/05/22 08:59:23;;;;;;;27.07;8.87;;;17.00;99.90;;;;;;5036817;28;20466;-68
2023/05/22 09:01:51;;;;;;;17.03;11.57;;;17.10;99.90;;;;;;5036558;28;20467;-68
2023/05/22 09:04:21;;;;;;;11.53;8.40;;;17.20;99.90;;;;;;5041319;28;20514;-68
2023/05/22 09:06:49;;;;;;;15.00;12.87;;;17.20;99.90;;;;;;5033252;28;20464;-68
2023/05/22 09:09:16;;;;;;;18.73;15.10;;;17.30;99.90;;;;;;5030976;28;21041;-67
2023/05/22 09:11:43;;;;;;;6.60;6.30;;;17.30;99.90;;;;;;5040040;28;20508;-68
2023/05/22 09:14:12;;;;;;;14.53;12.53;;;17.30;99.90;;;;;;5041676;28;20987;-67
2023/05/22 09:16:45;;;;;;;9.60;8.17;;;17.50;99.90;;;;;;5035127;28;20455;-68
2023/05/22 09:19:13;;;;;;;14.57;12.13;;;17.80;99.90;;;;;;5037510;28;20645;-68
2023/05/22 09:21:40;;;;;;;10.40;9.70;;;17.80;99.90;;;;;;5043849;28;21009;-67
2023/05/22 09:24:09;;;;;;;17.47;12.07;;;18.00;99.90;;;;;;5041484;28;20483;-68
2023/05/22 09:26:37;;;;;;;9.50;8.63;;;17.80;99.90;;;;;;5045717;28;20456;-68
2023/05/22 09:29:07;;;;;;;7.13;6.83;;;17.90;99.90;;;;;;5040367;28;20461;-68
2023/05/22 09:31:40;;;;;;;9.87;9.10;;;18.10;99.90;;;;;;5048867;28;20562;-68
2023/05/22 09:34:09;;;;;;;17.80;14.17;;;18.50;99.90;;;;;;5038583;28;20510;-67
2023/05/22 09:36:36;;;;;;;6.87;6.60;;;18.60;99.90;;;;;;5034365;28;20521;-68
2023/05/22 09:39:04;;;;;;;9.97;9.37;;;18.80;99.90;;;;;;5036693;28;20507;-67
2023/05/22 09:41:35;;;;;;;12.67;11.50;;;19.10;99.90;;;;;;5043139;28;20478;-68
2023/05/22 09:44:11;;;;;;;20.00;17.13;;;18.80;99.90;;;;;;5040929;28;20500;-68
2023/05/22 09:46:43;;;;;;;17.10;15.30;;;18.60;99.90;;;;;;5037812;28;21035;-67
2023/05/22 09:49:11;;;;;;;10.20;9.40;;;18.60;99.90;;;;;;5049459;28;20987;-68
2023/05/22 09:51:41;;;;;;;19.10;14.73;;;18.70;99.90;;;;;;5044529;28;20890;-68
2023/05/22 09:54:10;;;;;;;16.80;15.10;;;18.60;99.90;;;;;;5049216;28;20510;-68
2023/05/22 09:56:40;;;;;;;10.30;9.60;;;18.40;99.90;;;;;;5034608;28;20464;-68
2023/05/22 09:59:08;;;;;;;25.40;17.13;;;18.40;99.90;;;;;;5043977;28;20467;-69
2023/05/22 10:01:38;;;;;;;13.70;12.37;;;18.30;99.90;;;;;;5040650;28;20548;-68
2023/05/22 10:04:08;;;;;;;16.70;15.00;;;18.40;99.90;;;;;;5041808;28;20950;-68
2023/05/22 10:06:37;;;;;;;20.23;18.23;;;18.50;99.90;;;;;;5042784;28;20507;-68
2023/05/22 10:09:07;;;;;;;28.00;20.07;;;18.40;99.90;;;;;;5035081;28;20464;-68
2023/05/22 10:11:35;;;;;;;11.23;10.33;;;18.40;99.90;;;;;;5041358;28;21049;-68
2023/05/22 10:14:03;;;;;;;12.13;11.27;;;18.60;99.90;;;;;;5033435;28;20862;-68
2023/05/22 10:16:32;;;;;;;24.93;18.97;;;19.00;99.90;;;;;;5041045;28;20572;-68
2023/05/22 10:19:00;;;;;;;20.73;16.33;;;19.30;99.90;;;;;;5036510;28;20609;-68
2023/05/22 10:21:30;;;;;;;27.83;22.83;;;19.50;99.90;;;;;;5043245;28;20456;-68
2023/05/22 10:23:58;;;;;;;19.70;17.70;;;19.40;99.90;;;;;;5041217;28;20488;-68
2023/05/22 10:26:25;;;;;;;15.13;13.83;;;19.70;99.90;;;;;;5037339;28;20463;-68
2023/05/22 10:28:57;;;;;;;25.80;18.77;;;19.70;99.90;;;;;;5043726;28;20494;-68
2023/05/22 10:31:32;;;;;;;19.80;16.63;;;20.30;99.90;;;;;;5040029;28;20500;-68
2023/05/22 10:34:01;;;;;;;21.27;19.30;;;20.10;99.90;;;;;;5041830;28;20467;-68
2023/05/22 10:36:43;;;;;;;31.07;23.87;;;20.10;99.90;;;;;;5036122;28;20463;-68
2023/05/22 10:39:24;;;;;;;20.47;18.10;;;20.70;99.90;;;;;;5040382;28;20495;-68
2023/05/22 10:41:52;;;;;;;15.90;14.80;;;21.10;99.90;;;;;;5039058;28;20472;-67
2023/05/22 10:44:19;;;;;;;26.83;22.53;;;21.10;99.90;;;;;;5034277;28;20461;-68
2023/05/22 10:46:48;;;;;;;18.03;16.50;;;21.20;99.90;;;;;;5037041;28;20564;-68
2023/05/22 10:49:21;;;;;;;19.97;16.30;;;20.90;99.90;;;;;;5043015;28;20559;-68
2023/05/22 10:51:49;;;;;;;16.33;15.20;;;21.10;99.90;;;;;;5042257;28;20480;-68
2023/05/22 10:54:16;;;;;;;20.47;18.73;;;21.60;99.90;;;;;;5036976;28;20955;-68
2023/05/22 10:56:45;;;;;;;29.20;20.50;;;21.70;99.90;;;;;;5029911;28;20501;-68
2023/05/22 10:59:12;;;;;;;25.07;22.07;;;22.20;99.90;;;;;;5042320;28;20551;-68
2023/05/22 11:01:39;;;;;;;18.73;17.00;;;22.30;99.90;;;;;;5046551;28;20464;-68
2023/05/22 11:04:14;;;;;;;20.67;19.03;;;22.70;99.90;;;;;;5031755;28;20523;-68
2023/05/22 11:06:44;;;;;;;34.70;25.40;;;22.60;99.90;;;;;;5038674;28;20547;-68
2023/05/22 11:09:28;;;;;;;21.97;20.30;;;22.40;99.90;;;;;;5044161;28;20550;-69
2023/05/22 11:12:19;;;;;;;23.77;21.67;;;21.70;99.90;;;;;;5038105;28;20476;-68
2023/05/22 11:14:54;;;;;;;13.23;12.60;;;21.20;99.90;;;;;;5040446;28;21053;-68
2023/05/22 11:17:22;;;;;;;20.83;18.70;;;21.20;99.90;;;;;;5040575;28;20459;-67
2023/05/22 11:19:58;;;;;;;15.43;14.30;;;21.40;99.90;;;;;;5036609;28;21231;-68
2023/05/22 11:22:31;;;;;;;18.73;17.43;;;21.70;99.90;;;;;;5042222;28;21013;-68
2023/05/22 11:25:03;;;;;;;18.03;16.33;;;21.80;99.90;;;;;;5040862;28;20483;-68
2023/05/22 11:27:30;;;;;;;28.57;21.90;;;22.10;99.90;;;;;;5042958;28;20455;-68
2023/05/22 11:29:59;;;;;;;21.53;19.67;;;22.50;99.90;;;;;;5036600;28;20959;-68
2023/05/22 11:32:26;;;;;;;21.67;19.43;;;22.60;99.90;;;;;;5039980;28;20488;-68
2023/05/22 11:34:53;;;;;;;22.03;20.33;;;22.20;99.90;;;;;;5044937;28;20464;-68
2023/05/22 11:37:22;;;;;;;18.23;16.63;;;22.30;99.90;;;;;;5046088;28;20460;-68
2023/05/22 11:39:56;;;;;;;20.13;18.13;;;22.60;99.90;;;;;;5037386;28;20554;-68
2023/05/22 11:42:25;;;;;;;19.63;17.83;;;22.60;99.90;;;;;;5039618;28;20460;-68
2023/05/22 11:44:51;;;;;;;17.73;16.53;;;22.40;99.90;;;;;;5037089;28;20568;-68
2023/05/22 11:47:19;;;;;;;26.30;23.03;;;22.30;99.90;;;;;;5029713;28;20464;-68
2023/05/22 11:49:46;;;;;;;18.10;16.70;;;22.30;99.90;;;;;;5040164;28;21012;-68
2023/05/22 11:52:16;;;;;;;28.03;21.87;;;22.20;99.90;;;;;;5047647;28;20484;-68
2023/05/22 11:54:45;;;;;;;18.17;16.90;;;22.50;99.90;;;;;;5034669;28;20459;-69
2023/05/22 11:57:14;;;;;;;20.40;18.80;;;22.70;99.90;;;;;;5042686;28;20507;-68
2023/05/22 11:59:45;;;;;;;30.03;26.43;;;23.70;99.90;;;;;;5040294;28;20955;-68
2023/05/22 12:02:13;;;;;;;18.63;16.83;;;23.90;99.90;;;;;;5037719;28;20463;-68
2023/05/22 12:04:40;;;;;;;17.37;16.20;;;23.50;99.90;;;;;;5034265;28;20478;-68
2023/05/22 12:07:07;;;;;;;23.37;21.37;;;24.00;99.90;;;;;;5045641;28;20474;-69
2023/05/22 12:09:34;;;;;;;34.07;22.43;;;24.20;99.90;;;;;;5038785;28;20471;-69
2023/05/22 12:12:01;;;;;;;21.53;19.70;;;24.50;99.90;;;;;;5045061;28;20486;-69
2023/05/22 12:14:30;;;;;;;20.63;19.07;;;24.80;99.90;;;;;;5028719;28;20511;-68
2023/05/22 12:17:00;;;;;;;20.90;18.70;;;24.40;99.90;;;;;;5029385;28;20473;-68
2023/05/22 12:19:27;;;;;;;21.03;19.40;;;24.80;99.90;;;;;;5036292;28;20907;-69
2023/05/22 12:21:54;;;;;;;18.17;16.57;;;24.90;99.90;;;;;;5039622;28;20517;-69
2023/05/22 12:24:22;;;;;;;39.90;25.93;;;24.90;99.90;;;;;;5037021;28;20489;-69
2023/05/22 12:26:52;;;;;;;35.50;26.57;;;24.80;99.90;;;;;;5039679;28;20542;-68
2023/05/22 12:29:22;;;;;;;24.47;21.30;;;24.30;99.90;;;;;;5035919;28;20460;-68
2023/05/22 12:31:50;;;;;;;53.00;29.97;;;25.40;99.90;;;;;;5042269;28;20464;-69
2023/05/22 12:34:18;;;;;;;18.30;16.87;;;26.10;99.90;;;;;;5033076;28;20567;-68
2023/05/22 12:36:46;;;;;;;28.30;24.23;;;26.40;99.90;;;;;;5036014;28;20461;-69
2023/05/22 12:39:16;;;;;;;29.23;20.70;;;26.10;99.90;;;;;;5035241;28;20496;-69
2023/05/22 12:41:45;;;;;;;18.50;17.10;;;26.30;99.90;;;;;;5039894;28;20461;-68
2023/05/22 12:44:15;;;;;;;19.93;18.13;;;27.10;99.90;;;;;;5039447;28;20861;-69
2023/05/22 12:46:43;;;;;;;25.87;23.37;;;27.20;99.90;;;;;;5039460;28;20503;-69